Temp: 17.4°C   Baro: 1024.3mb
  Wind: 4.0mph   Dir: N (352°)
  Rain: 7.0mm (0.0mm/hr)
  Solar: 62W/m2  Hum: 65%

Historic data

Bath Spa Weather Station Historical Data
Daily Summary for August 05, 2022 Units:  Metric    English   Both
Daily Weekly Monthly Yearly Custom
  High: Low: Average:
Temperature: 21.2 °C 10.1 °C 16.3 °C
Dew Point: 11.3 °C 6.9 °C 9.2 °C
Humidity: 83% 47% 64%
Wind Speed: 19.3km/h 0km/h 6.1km/h
Wind Gust: 30.6km/h - -
Wind- - NW
Pressure: 1028.7 hPa 1020.5 hPa -
Precipitation: 0 mm    
Historical Graphs
 
 
Tabular Data for August 05, 2022
Time Temperature Dew Point Pressure Wind Wind Speed Wind Gust Humidity Rainfall Rate (Hourly) solar
00:09 15 °C 8.8 °C 1020.5 hPa NW 2.6 km/h 4.8 km/h 66.4% 0 mm 0 W/m2
00:14 15 °C 8.9 °C 1020.5 hPa NW 3.4 km/h 6.4 km/h 67.4% 0 mm 0 W/m2
00:19 14.9 °C 9 °C 1020.5 hPa WNW 3.1 km/h 4.8 km/h 68% 0 mm 0 W/m2
00:24 14.8 °C 9 °C 1020.5 hPa WNW 2.1 km/h 6.4 km/h 68% 0 mm 0 W/m2
00:29 14.8 °C 8.7 °C 1020.5 hPa WNW 1.9 km/h 6.4 km/h 67% 0 mm 0 W/m2
00:34 14.8 °C 8.7 °C 1020.5 hPa WNW 2.3 km/h 4.8 km/h 67% 0 mm 0 W/m2
00:39 14.8 °C 8.7 °C 1020.5 hPa WNW 2.6 km/h 4.8 km/h 67% 0 mm 0 W/m2
00:44 14.8 °C 8.7 °C 1020.9 hPa WNW 1.9 km/h 6.4 km/h 67% 0 mm 0 W/m2
00:49 14.8 °C 8.7 °C 1020.9 hPa WNW 1.8 km/h 4.8 km/h 67% 0 mm 0 W/m2
00:54 14.8 °C 8.7 °C 1020.9 hPa WNW 2.4 km/h 6.4 km/h 67% 0 mm 0 W/m2
00:59 14.8 °C 8.7 °C 1020.9 hPa WNW 0.8 km/h 4.8 km/h 67% 0 mm 0 W/m2
01:04 14.7 °C 8.6 °C 1020.9 hPa WNW 3.1 km/h 6.4 km/h 67% 0 mm 0 W/m2
01:09 14.7 °C 8.6 °C 1020.9 hPa WNW 2.9 km/h 6.4 km/h 67% 0 mm 0 W/m2
01:14 14.7 °C 8.6 °C 1020.9 hPa WNW 2.4 km/h 6.4 km/h 67% 0 mm 0 W/m2
01:19 14.7 °C 8.6 °C 1020.9 hPa NW 3.9 km/h 8 km/h 67% 0 mm 0 W/m2
01:24 14.7 °C 8.7 °C 1020.9 hPa NNW 2.7 km/h 8 km/h 67.2% 0 mm 0 W/m2
01:29 14.6 °C 8.7 °C 1020.9 hPa NW 3.2 km/h 6.4 km/h 67.6% 0 mm 0 W/m2
01:34 14.6 °C 8.8 °C 1020.9 hPa NW 3.7 km/h 9.7 km/h 68% 0 mm 0 W/m2
01:39 14.5 °C 8.8 °C 1020.9 hPa NW 4.7 km/h 8 km/h 68.4% 0 mm 0 W/m2
01:44 14.4 °C 8.8 °C 1020.9 hPa NW 3.1 km/h 8 km/h 69% 0 mm 0 W/m2
01:49 14.3 °C 8.8 °C 1021.2 hPa NW 3.5 km/h 8 km/h 69% 0 mm 0 W/m2
01:54 14.3 °C 8.8 °C 1021.2 hPa NW 2.1 km/h 6.4 km/h 69.4% 0 mm 0 W/m2
01:59 14.3 °C 8.9 °C 1021.2 hPa NW 3.9 km/h 9.7 km/h 70% 0 mm 0 W/m2
02:04 14.3 °C 8.9 °C 1021.2 hPa NW 3.4 km/h 8 km/h 70% 0 mm 0 W/m2
02:09 14.3 °C 8.9 °C 1021.2 hPa WNW 4 km/h 9.7 km/h 70% 0 mm 0 W/m2
02:14 14.3 °C 9 °C 1021.2 hPa NW 3.9 km/h 6.4 km/h 70.4% 0 mm 0 W/m2
02:19 14.2 °C 9 °C 1021.2 hPa NW 1.9 km/h 4.8 km/h 71% 0 mm 0 W/m2
02:24 14.2 °C 9 °C 1021.2 hPa NW 2.4 km/h 4.8 km/h 71% 0 mm 0 W/m2
02:29 14 °C 8.9 °C 1021.2 hPa WNW 3.2 km/h 8 km/h 71.6% 0 mm 0 W/m2
02:33 13.9 °C 8.9 °C 1021.2 hPa WNW 4.8 km/h 8 km/h 72% 0 mm 0 W/m2
02:39 13.8 °C 9 °C 1021.2 hPa WNW 3.9 km/h 6.4 km/h 73% 0 mm 0 W/m2
02:44 13.7 °C 8.9 °C 1021.2 hPa WNW 4.2 km/h 8 km/h 73% 0 mm 0 W/m2
02:49 13.7 °C 8.9 °C 1021.2 hPa WNW 1.9 km/h 4.8 km/h 73% 0 mm 0 W/m2
02:54 13.7 °C 9 °C 1021.2 hPa WNW 2.1 km/h 3.2 km/h 73.4% 0 mm 0 W/m2
02:59 13.6 °C 9.1 °C 1021.6 hPa WNW 1.9 km/h 4.8 km/h 74% 0 mm 0 W/m2
03:04 13.5 °C 9 °C 1021.6 hPa Calm   3.2 km/h 74% 0 mm 0 W/m2
03:09 13.3 °C 8.8 °C 1021.6 hPa WNW 4 km/h 4.8 km/h 74% 0 mm 0 W/m2
03:14 13.2 °C 8.8 °C 1021.6 hPa WNW 2.3 km/h 4.8 km/h 74.8% 0 mm 0 W/m2
03:19 13.1 °C 8.8 °C 1021.6 hPa WNW 3.5 km/h 6.4 km/h 75% 0 mm 0 W/m2
03:24 13.1 °C 8.8 °C 1021.6 hPa WNW 0.8 km/h 6.4 km/h 75% 0 mm 0 W/m2
03:29 13.1 °C 8.8 °C 1021.6 hPa WNW 1.6 km/h 3.2 km/h 75% 0 mm 0 W/m2
03:34 12.9 °C 8.8 °C 1021.6 hPa WNW 0.8 km/h 1.6 km/h 76% 0 mm 0 W/m2
03:39 12.9 °C 8.8 °C 1021.6 hPa WNW 1.1 km/h 3.2 km/h 76% 0 mm 0 W/m2
03:44 12.9 °C 8.8 °C 1021.6 hPa WNW 0.6 km/h 3.2 km/h 76% 0 mm 0 W/m2
03:49 12.8 °C 8.7 °C 1021.6 hPa Calm   1.6 km/h 76% 0 mm 0 W/m2
03:54 12.7 °C 8.6 °C 1021.6 hPa Calm     76% 0 mm 0 W/m2
03:59 12.6 °C 8.7 °C 1021.6 hPa Calm     77% 0 mm 0 W/m2
04:04 12.6 °C 8.7 °C 1021.6 hPa Calm     77% 0 mm 0 W/m2
04:09 12.4 °C 8.6 °C 1021.9 hPa Calm     77% 0 mm 0 W/m2
04:14 12.4 °C 8.5 °C 1021.9 hPa Calm     77% 0 mm 0 W/m2
04:19 12.3 °C 8.4 °C 1021.9 hPa Calm     77% 0 mm 0 W/m2
04:24 12.2 °C 8.3 °C 1021.6 hPa Calm     77% 0 mm 0 W/m2
04:28 12.1 °C 8.2 °C 1021.6 hPa Calm     77% 0 mm 0 W/m2
04:34 11.9 °C 8.1 °C 1021.9 hPa WNW 1 km/h 3.2 km/h 77.2% 0 mm 0 W/m2
04:39 11.8 °C 8.1 °C 1021.9 hPa Calm   1.6 km/h 78% 0 mm 0 W/m2
04:44 11.7 °C 8 °C 1021.9 hPa Calm     78% 0 mm 0 W/m2
04:49 11.7 °C 7.9 °C 1021.9 hPa Calm   1.6 km/h 78% 0 mm 0 W/m2
04:54 11.6 °C 7.9 °C 1021.9 hPa WNW 0.6 km/h 1.6 km/h 78% 0 mm 0 W/m2
04:59 11.5 °C 7.8 °C 1021.9 hPa WNW 0.8 km/h 1.6 km/h 78% 0 mm 0 W/m2
05:04 11.4 °C 7.7 °C 1021.9 hPa WNW 0.3 km/h 1.6 km/h 78% 0 mm 0 W/m2
05:09 11.3 °C 7.6 °C 1021.9 hPa Calm   1.6 km/h 78% 0 mm 0 W/m2
05:14 11.2 °C 7.4 °C 1021.6 hPa Calm     78% 0 mm 0 W/m2
05:19 11 °C 7.3 °C 1021.9 hPa Calm     78% 0 mm 0 W/m2
05:24 10.9 °C 7.2 °C 1021.9 hPa Calm   1.6 km/h 78% 0 mm 0 W/m2
05:29 10.7 °C 7.1 °C 1021.9 hPa WNW 0.8 km/h 3.2 km/h 78% 0 mm 0 W/m2
05:34 10.7 °C 7 °C 1022.2 hPa WNW 0.3 km/h 3.2 km/h 78% 0 mm 0 W/m2
05:39 10.6 °C 7.1 °C 1022.2 hPa WNW 0.8 km/h 4.8 km/h 78.8% 0 mm 0 W/m2
05:44 10.6 °C 7.1 °C 1022.2 hPa WNW 1.6 km/h 4.8 km/h 79% 0 mm 5 W/m2
05:49 10.4 °C 7 °C 1022.2 hPa WNW 0.8 km/h 4.8 km/h 79.6% 0 mm 7 W/m2
05:54 10.3 °C 7 °C 1022.2 hPa WNW 0.6 km/h 1.6 km/h 80% 0 mm 9 W/m2
05:59 10.2 °C 6.9 °C 1022.2 hPa WNW 2.6 km/h 3.2 km/h 80.4% 0 mm 11 W/m2
06:04 10.1 °C 7 °C 1022.2 hPa WNW 1.9 km/h 4.8 km/h 81% 0 mm 12 W/m2
06:09 10.1 °C 7.1 °C 1022.2 hPa WNW 1 km/h 4.8 km/h 81.4% 0 mm 14 W/m2
06:14 10.1 °C 7.2 °C 1022.2 hPa WNW 0.3 km/h 1.6 km/h 82% 0 mm 16 W/m2
06:19 10.1 °C 7.2 °C 1022.6 hPa WNW 1.6 km/h 6.4 km/h 82% 0 mm 18 W/m2
06:24 10.1 °C 7.2 °C 1022.6 hPa WNW 2.7 km/h 6.4 km/h 82% 0 mm 19 W/m2
06:29 10.1 °C 7.2 °C 1022.6 hPa WNW 1.9 km/h 6.4 km/h 82% 0 mm 19 W/m2
06:34 10.1 °C 7.3 °C 1022.6 hPa WNW 1 km/h 4.8 km/h 83% 0 mm 21 W/m2
06:39 10.2 °C 7.4 °C 1022.6 hPa WNW 0.8 km/h 3.2 km/h 83% 0 mm 23 W/m2
06:44 10.3 °C 7.5 °C 1022.6 hPa WNW 0.3 km/h 3.2 km/h 83% 0 mm 25 W/m2
06:49 10.4 °C 7.6 °C 1022.9 hPa WNW 1.3 km/h 4.8 km/h 83% 0 mm 25 W/m2
06:54 10.5 °C 7.7 °C 1022.9 hPa WNW 0.6 km/h 4.8 km/h 83% 0 mm 28 W/m2
06:59 10.7 °C 7.8 °C 1022.9 hPa WNW 1.6 km/h 4.8 km/h 83% 0 mm 33 W/m2
07:04 10.8 °C 7.9 °C 1022.9 hPa WNW 2.3 km/h 4.8 km/h 82.8% 0 mm 40 W/m2
07:09 10.9 °C 7.9 °C 1022.9 hPa WNW 1.9 km/h 3.2 km/h 82% 0 mm 53 W/m2
07:14 11.2 °C 8.2 °C 1022.9 hPa WNW 1.4 km/h 4.8 km/h 82% 0 mm 67 W/m2
07:19 11.3 °C 8.3 °C 1022.9 hPa WNW 0.6 km/h 4.8 km/h 82% 0 mm 83 W/m2
07:24 11.5 °C 8.4 °C 1022.9 hPa WNW 1.3 km/h 4.8 km/h 81.8% 0 mm 97 W/m2
07:29 11.7 °C 8.5 °C 1022.9 hPa WNW 1 km/h 3.2 km/h 81% 0 mm 113 W/m2
07:34 11.9 °C 8.7 °C 1023.2 hPa WNW 2.3 km/h 4.8 km/h 81% 0 mm 130 W/m2
07:38 12.2 °C 9 °C 1023.2 hPa WNW 1.1 km/h 3.2 km/h 81% 0 mm 144 W/m2
07:44 12.3 °C 8.9 °C 1023.2 hPa WNW 1.8 km/h 4.8 km/h 80% 0 mm 162 W/m2
07:49 12.6 °C 9.2 °C 1023.2 hPa WNW 3.9 km/h 8 km/h 79.6% 0 mm 179 W/m2
07:54 12.8 °C 9.2 °C 1023.2 hPa West 3.9 km/h 8 km/h 78.8% 0 mm 195 W/m2
07:59 13.1 °C 9.3 °C 1023.2 hPa West 7.7 km/h 11.3 km/h 77.8% 0 mm 211 W/m2
08:04 13.3 °C 9.3 °C 1023.2 hPa West 6.3 km/h 11.3 km/h 76.6% 0 mm 227 W/m2
08:09 13.4 °C 9.3 °C 1023.2 hPa West 6.4 km/h 11.3 km/h 76% 0 mm 243 W/m2
08:14 13.6 °C 9.3 °C 1023.6 hPa West 7.2 km/h 14.5 km/h 75.4% 0 mm 257 W/m2
08:19 13.8 °C 9.3 °C 1023.6 hPa West 5.6 km/h 12.9 km/h 75% 0 mm 272 W/m2
08:24 13.9 °C 9.4 °C 1023.2 hPa WNW 5.5 km/h 9.7 km/h 74.6% 0 mm 290 W/m2
08:29 14.2 °C 9.6 °C 1023.6 hPa NW 6.3 km/h 11.3 km/h 74% 0 mm 308 W/m2
08:34 14.3 °C 9.6 °C 1023.6 hPa WNW 3.1 km/h 12.9 km/h 73.2% 0 mm 323 W/m2
08:39 14.6 °C 9.7 °C 1023.6 hPa WNW 7.7 km/h 12.9 km/h 72.8% 0 mm 339 W/m2
08:44 14.7 °C 9.7 °C 1023.6 hPa WNW 7.1 km/h 14.5 km/h 72% 0 mm 357 W/m2
08:49 14.9 °C 9.8 °C 1023.6 hPa WNW 8.4 km/h 17.7 km/h 71.5% 0 mm 373 W/m2
08:54 15.1 °C 9.7 °C 1023.6 hPa NNW 4.7 km/h 14.5 km/h 70% 0 mm 387 W/m2
08:59 15.4 °C 10 °C 1023.6 hPa NW 4.5 km/h 16.1 km/h 70.2% 0 mm 403 W/m2
09:04 15.4 °C 9.8 °C 1023.9 hPa NNW 7.4 km/h 16.1 km/h 69.2% 0 mm 415 W/m2
09:09 15.4 °C 9.7 °C 1023.6 hPa NW 9.3 km/h 17.7 km/h 68.4% 0 mm 427 W/m2
09:11 15.4 °C 9.6 °C 1023.9 hPa NNW 7.2 km/h 14.5 km/h 68% 0 mm 434 W/m2
09:29 16.1 °C 9.6 °C 1023.9 hPa WNW 10.3 km/h 19.3 km/h 65.3% 0 mm 478 W/m2
09:34 16.2 °C 9.8 °C 1023.9 hPa NW 10.3 km/h 16.1 km/h 66% 0 mm 490 W/m2
09:39 16.2 °C 9.9 °C 1023.9 hPa NW 11.9 km/h 19.3 km/h 66.4% 0 mm 504 W/m2
09:44 16.2 °C 9.9 °C 1023.9 hPa NW 9 km/h 17.7 km/h 66.6% 0 mm 517 W/m2
09:49 16.3 °C 10.1 °C 1023.9 hPa NW 11.9 km/h 20.9 km/h 66.6% 0 mm 527 W/m2
09:54 16.6 °C 10.2 °C 1023.9 hPa NW 7.9 km/h 20.9 km/h 65.8% 0 mm 540 W/m2
09:59 16.8 °C 10.2 °C 1023.9 hPa NNW 9.7 km/h 19.3 km/h 64.8% 0 mm 550 W/m2
10:04 16.7 °C 9.9 °C 1023.9 hPa NW 9.3 km/h 16.1 km/h 64% 0 mm 559 W/m2
10:09 16.8 °C 10.1 °C 1023.9 hPa NNW 7.2 km/h 16.1 km/h 64.4% 0 mm 573 W/m2
10:14 17.1 °C 9.8 °C 1023.9 hPa WNW 8.2 km/h 22.5 km/h 62.4% 0 mm 585 W/m2
10:19 17.2 °C 9.8 °C 1023.9 hPa WNW 10.6 km/h 20.9 km/h 61.6% 0 mm 592 W/m2
10:24 17.2 °C 9.6 °C 1023.9 hPa NW 11.9 km/h 19.3 km/h 61% 0 mm 605 W/m2
10:29 17.2 °C 9.7 °C 1023.9 hPa NNW 7.2 km/h 19.3 km/h 61% 0 mm 615 W/m2
10:34 17.6 °C 9.8 °C 1023.9 hPa NW 9.7 km/h 17.7 km/h 60.2% 0 mm 629 W/m2
10:39 17.8 °C 9.9 °C 1023.9 hPa NNW 9.2 km/h 14.5 km/h 60.2% 0 mm 635 W/m2
10:44 17.9 °C 9.9 °C 1023.9 hPa WNW 8.2 km/h 20.9 km/h 59.2% 0 mm 657 W/m2
10:49 18 °C 9.9 °C 1023.9 hPa NNW 10.9 km/h 20.9 km/h 59% 0 mm 673 W/m2
10:54 17.8 °C 9.8 °C 1023.9 hPa NNW 11.4 km/h 20.9 km/h 59.2% 0 mm 682 W/m2
10:59 17.7 °C 9.7 °C 1023.9 hPa NW 16.7 km/h 24.1 km/h 59.2% 0 mm 689 W/m2
11:04 17.6 °C 9.6 °C 1023.9 hPa NW 11.9 km/h 22.5 km/h 59.2% 0 mm 710 W/m2
11:09 17.7 °C 9.7 °C 1023.9 hPa NNW 14.2 km/h 22.5 km/h 59.6% 0 mm 728 W/m2
11:14 17.7 °C 9.7 °C 1023.9 hPa NW 12.6 km/h 29 km/h 59.4% 0 mm 735 W/m2
11:19 17.7 °C 9.7 °C 1023.9 hPa NW 12.6 km/h 24.1 km/h 59.4% 0 mm 759 W/m2
11:24 17.8 °C 9.4 °C 1023.9 hPa NW 11.3 km/h 20.9 km/h 57.8% 0 mm 807 W/m2
11:29 18.1 °C 9.5 °C 1023.9 hPa NW 11.3 km/h 27.4 km/h 57.6% 0 mm 819 W/m2
11:34 18.2 °C 9.7 °C 1023.9 hPa NW 9.3 km/h 27.4 km/h 57.4% 0 mm 937 W/m2
11:39 18.6 °C 9.8 °C 1024.3 hPa NW 8.7 km/h 22.5 km/h 56.6% 0 mm 974 W/m2
11:44 18.4 °C 9.6 °C 1024.3 hPa NW 9.8 km/h 22.5 km/h 56.4% 0 mm 874 W/m2
11:49 18.4 °C 9.2 °C 1024.3 hPa NW 9.8 km/h 22.5 km/h 55% 0 mm 874 W/m2
11:54 18.4 °C 9.2 °C 1024.3 hPa North 12.1 km/h 20.9 km/h 54.8% 0 mm 928 W/m2
11:59 18.6 °C 9.3 °C 1024.3 hPa NNW 16.7 km/h 27.4 km/h 55% 0 mm 942 W/m2
12:04 18.6 °C 9.4 °C 1024.3 hPa NW 10.9 km/h 24.1 km/h 55% 0 mm 907 W/m2
12:09 18.7 °C 9.7 °C 1024.3 hPa NW 11.9 km/h 22.5 km/h 55.6% 0 mm 193 W/m2
12:14 18.6 °C 9.8 °C 1024.3 hPa WNW 12.7 km/h 27.4 km/h 56.4% 0 mm 900 W/m2
12:19 18.6 °C 9.8 °C 1024.3 hPa WNW 13.2 km/h 27.4 km/h 56.8% 0 mm 904 W/m2
12:24 18.7 °C 9.9 °C 1024.3 hPa West 12.2 km/h 27.4 km/h 56.8% 0 mm 882 W/m2
12:29 19 °C 9.9 °C 1024.6 hPa WNW 10.3 km/h 27.4 km/h 55.4% 0 mm 874 W/m2
12:34 19.1 °C 9.4 °C 1024.6 hPa NNW 11.6 km/h 20.9 km/h 53.5% 0 mm 860 W/m2
12:39 19.3 °C 9.9 °C 1024.6 hPa WNW 9 km/h 22.5 km/h 54.4% 0 mm 942 W/m2
12:44 19.3 °C 10 °C 1024.6 hPa NW 11.9 km/h 20.9 km/h 54.8% 0 mm 946 W/m2
12:49 19.2 °C 9.7 °C 1024.3 hPa WNW 9.8 km/h 20.9 km/h 54% 0 mm 969 W/m2
12:54 19.2 °C 9.7 °C 1024.6 hPa WNW 19.3 km/h 30.6 km/h 54% 0 mm 958 W/m2
12:59 19.1 °C 9.6 °C 1024.6 hPa NW 10 km/h 19.3 km/h 54.4% 0 mm 893 W/m2
13:04 19.4 °C 9.7 °C 1024.6 hPa WNW 8.5 km/h 20.9 km/h 53.2% 0 mm 889 W/m2
13:09 19.8 °C 9.8 °C 1024.6 hPa WNW 12.6 km/h 22.5 km/h 52.6% 0 mm 888 W/m2
13:14 19.7 °C 9.8 °C 1024.6 hPa NW 8.2 km/h 16.1 km/h 52.8% 0 mm 895 W/m2
13:19 19.9 °C 9.9 °C 1024.6 hPa West 7.1 km/h 20.9 km/h 52.4% 0 mm 1016 W/m2
13:24 20 °C 9.9 °C 1024.6 hPa North 12.2 km/h 22.5 km/h 52.4% 0 mm 997 W/m2
13:29 19.6 °C 9.9 °C 1024.6 hPa NW 10.9 km/h 20.9 km/h 53.6% 0 mm 631 W/m2
13:34 19.4 °C 9.8 °C 1024.6 hPa NW 10.3 km/h 24.1 km/h 53.6% 0 mm 925 W/m2
13:39 19.6 °C 9.5 °C 1024.6 hPa NW 11.9 km/h 24.1 km/h 52% 0 mm 954 W/m2
13:44 19.8 °C 9.8 °C 1024.6 hPa NW 11.4 km/h 25.7 km/h 52.6% 0 mm 951 W/m2
13:49 19.7 °C 10.1 °C 1024.9 hPa NW 13.2 km/h 27.4 km/h 53.6% 0 mm 888 W/m2
13:54 20.1 °C 10.6 °C 1024.6 hPa WNW 6.4 km/h 17.7 km/h 54.3% 0 mm 886 W/m2
13:59 20.4 °C 10.4 °C 1024.6 hPa WNW 12.2 km/h 27.4 km/h 52.8% 0 mm 912 W/m2
14:04 20.2 °C 10.4 °C 1024.9 hPa NW 13.2 km/h 25.7 km/h 53.4% 0 mm 944 W/m2
14:09 20.2 °C 10.2 °C 1024.9 hPa NW 9.2 km/h 24.1 km/h 52.8% 0 mm 921 W/m2
14:14 20.4 °C 10.6 °C 1024.9 hPa WNW 11.9 km/h 22.5 km/h 53.2% 0 mm 1002 W/m2
14:19 20.3 °C 10.1 °C 1024.9 hPa WNW 8.9 km/h 19.3 km/h 52.2% 0 mm 988 W/m2
14:24 20.4 °C 10.2 °C 1024.9 hPa WNW 12.9 km/h 25.7 km/h 51.8% 0 mm 949 W/m2
14:29 20.4 °C 10.1 °C 1024.9 hPa WNW 14.2 km/h 27.4 km/h 51.4% 0 mm 976 W/m2
14:34 20.7 °C 10.2 °C 1024.9 hPa WNW 9.7 km/h 27.4 km/h 51% 0 mm 976 W/m2
14:39 20.8 °C 10.2 °C 1024.9 hPa WNW 10.8 km/h 22.5 km/h 50.8% 0 mm 969 W/m2
14:44 20.9 °C 10.4 °C 1024.9 hPa West 7.9 km/h 22.5 km/h 50.8% 0 mm 251 W/m2
14:49 20.6 °C 9.8 °C 1024.9 hPa NW 12.9 km/h 27.4 km/h 50.2% 0 mm 352 W/m2
14:54 20.2 °C 9.6 °C 1024.9 hPa NW 12.9 km/h 27.4 km/h 50.8% 0 mm 285 W/m2
14:59 19.9 °C 9.7 °C 1024.9 hPa WNW 8.4 km/h 19.3 km/h 51.8% 0 mm 963 W/m2
15:04 20.2 °C 9.8 °C 1024.9 hPa NW 14.2 km/h 25.7 km/h 51.4% 0 mm 919 W/m2
15:09 20.2 °C 9.9 °C 1024.9 hPa WNW 10.5 km/h 20.9 km/h 51.5% 0 mm 919 W/m2
15:14 20.5 °C 10.2 °C 1024.9 hPa NW 13.5 km/h 20.9 km/h 51.6% 0 mm 847 W/m2
15:19 20.5 °C 10.1 °C 1024.9 hPa WSW 7.2 km/h 19.3 km/h 51.2% 0 mm 151 W/m2
15:24 20.1 °C 9.7 °C 1024.9 hPa NW 12.9 km/h 19.3 km/h 51.2% 0 mm 188 W/m2
15:29 19.7 °C 9.8 °C 1024.9 hPa WNW 9.3 km/h 17.7 km/h 52.6% 0 mm 802 W/m2
15:34 20.2 °C 10.6 °C 1024.9 hPa WNW 8.7 km/h 16.1 km/h 54% 0 mm 780 W/m2
15:39 19.9 °C 10.1 °C 1024.9 hPa WNW 9.7 km/h 16.1 km/h 53% 0 mm 775 W/m2
15:44 20.2 °C 9.9 °C 1024.9 hPa WNW 9.3 km/h 19.3 km/h 51.8% 0 mm 766 W/m2
15:49 20.6 °C 10.2 °C 1024.9 hPa WNW 6.8 km/h 16.1 km/h 51.4% 0 mm 775 W/m2
15:54 20.8 °C 10 °C 1024.9 hPa WNW 10.9 km/h 24.1 km/h 50% 0 mm 795 W/m2
15:59 20.8 °C 9.9 °C 1024.9 hPa WNW 11.3 km/h 22.5 km/h 49.4% 0 mm 891 W/m2
16:04 21.2 °C 9.9 °C 1024.9 hPa WNW 12.6 km/h 24.1 km/h 48.6% 0 mm 895 W/m2
16:09 21.2 °C 9.4 °C 1024.9 hPa West 15.4 km/h 25.7 km/h 47% 0 mm 846 W/m2
16:14 21.2 °C 9.7 °C 1024.9 hPa WNW 10.6 km/h 22.5 km/h 47.8% 0 mm 847 W/m2
16:19 21.2 °C 10.3 °C 1024.9 hPa West 12.9 km/h 22.5 km/h 49.8% 0 mm 847 W/m2
16:24 21.1 °C 10.3 °C 1024.9 hPa WNW 10.6 km/h 24.1 km/h 50.2% 0 mm 742 W/m2
16:29 20.8 °C 10.3 °C 1024.9 hPa WNW 10.6 km/h 19.3 km/h 50.8% 0 mm 777 W/m2
16:34 21.1 °C 10.3 °C 1024.9 hPa WNW 4 km/h 14.5 km/h 50.3% 0 mm 791 W/m2
16:39 20.9 °C 10.1 °C 1024.9 hPa NW 15.1 km/h 27.4 km/h 49.8% 0 mm 719 W/m2
16:44 21.1 °C 10.1 °C 1024.9 hPa WNW 10.1 km/h 20.9 km/h 49.4% 0 mm 687 W/m2
16:49 21 °C 10.9 °C 1024.9 hPa WNW 11.3 km/h 22.5 km/h 52.4% 0 mm 710 W/m2
16:54 20.9 °C 11.2 °C 1024.9 hPa West 10.8 km/h 22.5 km/h 54% 0 mm 715 W/m2
16:59 20.9 °C 11.3 °C 1024.9 hPa WNW 10.6 km/h 19.3 km/h 54% 0 mm 733 W/m2
17:04 20.8 °C 10.9 °C 1024.9 hPa WNW 13.2 km/h 25.7 km/h 53% 0 mm 719 W/m2
17:09 20.8 °C 10.6 °C 1024.9 hPa West 12.1 km/h 25.7 km/h 52% 0 mm 686 W/m2
17:14 20.8 °C 10.7 °C 1024.9 hPa West 8.9 km/h 25.7 km/h 52.4% 0 mm 295 W/m2
17:19 20.9 °C 10.3 °C 1024.9 hPa WNW 10.3 km/h 20.9 km/h 50.4% 0 mm 642 W/m2
17:24 21.1 °C 10.3 °C 1024.9 hPa NW 15 km/h 24.1 km/h 50% 0 mm 612 W/m2
17:29 20.8 °C 10.1 °C 1024.9 hPa WNW 12.9 km/h 24.1 km/h 50.2% 0 mm 624 W/m2
17:34 20.6 °C 9.9 °C 1024.9 hPa WNW 11.4 km/h 20.9 km/h 50.4% 0 mm 202 W/m2
17:39 20.8 °C 10 °C 1024.9 hPa NW 9.3 km/h 17.7 km/h 50% 0 mm 587 W/m2
17:44 20.8 °C 9.9 °C 1024.9 hPa WNW 8.5 km/h 17.7 km/h 50% 0 mm 585 W/m2
17:49 20.2 °C 9.6 °C 1024.9 hPa NW 10 km/h 17.7 km/h 50.6% 0 mm 155 W/m2
17:54 20.1 °C 9.8 °C 1024.9 hPa NW 7.9 km/h 20.9 km/h 51.6% 0 mm 111 W/m2
17:59 20.1 °C 9.6 °C 1024.9 hPa WNW 6 km/h 12.9 km/h 51% 0 mm 111 W/m2
18:04 20.2 °C 9.9 °C 1024.9 hPa WNW 7.7 km/h 19.3 km/h 51.8% 0 mm 457 W/m2
18:09 20.4 °C 9.6 °C 1024.9 hPa WNW 9.7 km/h 19.3 km/h 50% 0 mm 448 W/m2
18:14 20.7 °C 9.9 °C 1024.9 hPa WNW 11.9 km/h 20.9 km/h 50% 0 mm 443 W/m2
18:19 20.6 °C 9.8 °C 1024.9 hPa NW 9.7 km/h 17.7 km/h 50% 0 mm 425 W/m2
18:24 20.6 °C 9.8 °C 1024.9 hPa WNW 8.4 km/h 19.3 km/h 50% 0 mm 425 W/m2
18:29 20.3 °C 9.5 °C 1025.3 hPa WNW 12.4 km/h 22.5 km/h 50% 0 mm 410 W/m2
18:34 20.3 °C 9.6 °C 1025.3 hPa NW 11.3 km/h 22.5 km/h 50.2% 0 mm 392 W/m2
18:39 20.1 °C 9.6 °C 1025.3 hPa WNW 7.9 km/h 22.5 km/h 50.8% 0 mm 120 W/m2
18:43 19.8 °C 9.4 °C 1025.3 hPa WNW 6.8 km/h 17.7 km/h 51% 0 mm 169 W/m2
18:49 19.7 °C 9.6 °C 1025.3 hPa NW 9.7 km/h 19.3 km/h 52% 0 mm 195 W/m2
18:54 19.7 °C 9.4 °C 1025.3 hPa WNW 6.6 km/h 16.1 km/h 51.6% 0 mm 257 W/m2
18:59 19.8 °C 9.3 °C 1025.3 hPa WNW 9.3 km/h 16.1 km/h 51% 0 mm 227 W/m2
19:04 19.6 °C 9.3 °C 1025.3 hPa NW 10.6 km/h 16.1 km/h 51.4% 0 mm 70 W/m2
19:09 19.4 °C 9.1 °C 1025.6 hPa NNW 6.8 km/h 16.1 km/h 51.4% 0 mm 113 W/m2
19:14 19.4 °C 9.1 °C 1025.6 hPa WNW 7.1 km/h 19.3 km/h 51% 0 mm 172 W/m2
19:19 19.6 °C 9.1 °C 1025.6 hPa NW 7.4 km/h 19.3 km/h 50.8% 0 mm 171 W/m2
19:24 19.7 °C 9.1 °C 1025.6 hPa NW 7.4 km/h 16.1 km/h 50.4% 0 mm 167 W/m2
19:29 19.8 °C 9.3 °C 1025.6 hPa NW 7.9 km/h 14.5 km/h 50.8% 0 mm 156 W/m2
19:34 19.7 °C 9 °C 1025.6 hPa NW 7.9 km/h 16.1 km/h 49.8% 0 mm 137 W/m2
19:39 19.7 °C 8.9 °C 1025.6 hPa NW 8 km/h 17.7 km/h 49.8% 0 mm 111 W/m2
19:44 19.4 °C 8.7 °C 1025.6 hPa NW 7.9 km/h 16.1 km/h 49.8% 0 mm 116 W/m2
19:49 19.4 °C 8.6 °C 1025.6 hPa NW 8.4 km/h 14.5 km/h 49.6% 0 mm 97 W/m2
19:54 19.3 °C 8.7 °C 1025.6 hPa NW 7.1 km/h 17.7 km/h 50% 0 mm 67 W/m2
19:59 19.2 °C 8.7 °C 1026 hPa NNW 6.3 km/h 17.7 km/h 50.6% 0 mm 58 W/m2
20:04 19.2 °C 8.8 °C 1026 hPa NW 3.9 km/h 9.7 km/h 51.2% 0 mm 53 W/m2
20:09 19.1 °C 8.9 °C 1026 hPa NW 8.4 km/h 16.1 km/h 52% 0 mm 33 W/m2
20:14 18.7 °C 8.9 °C 1026 hPa NW 7.9 km/h 12.9 km/h 53.2% 0 mm 28 W/m2
20:19 18.3 °C 9 °C 1026 hPa North 8.4 km/h 12.9 km/h 54.6% 0 mm 21 W/m2
20:24 18.2 °C 9.2 °C 1026.3 hPa NNW 7.9 km/h 16.1 km/h 55.8% 0 mm 19 W/m2
20:29 17.9 °C 9.1 °C 1026.3 hPa NNW 6.8 km/h 11.3 km/h 56.2% 0 mm 16 W/m2
20:34 17.8 °C 9.2 °C 1026.3 hPa NW 6.9 km/h 14.5 km/h 57% 0 mm 14 W/m2
20:39 17.7 °C 9.2 °C 1026.3 hPa North 6.9 km/h 14.5 km/h 57.4% 0 mm 11 W/m2
20:44 17.6 °C 9.2 °C 1026.3 hPa NNW 3.9 km/h 9.7 km/h 58% 0 mm 7 W/m2
20:49 17.4 °C 9.1 °C 1026.6 hPa NNW 4 km/h 9.7 km/h 58% 0 mm 0 W/m2
20:54 17.2 °C 9 °C 1026.6 hPa NNW 3.4 km/h 8 km/h 58.2% 0 mm 0 W/m2
20:59 17.1 °C 9 °C 1026.6 hPa NNW 5.8 km/h 8 km/h 59% 0 mm 0 W/m2
21:04 16.9 °C 8.9 °C 1026.6 hPa NNW 2.7 km/h 8 km/h 59.4% 0 mm 0 W/m2
21:09 16.8 °C 9 °C 1027 hPa NNW 3.4 km/h 9.7 km/h 59.8% 0 mm 0 W/m2
21:14 16.7 °C 8.9 °C 1027 hPa NNW 4.3 km/h 8 km/h 60% 0 mm 0 W/m2
21:19 16.6 °C 8.9 °C 1027 hPa North 4.8 km/h 9.7 km/h 60.8% 0 mm 0 W/m2
21:24 16.4 °C 8.9 °C 1027 hPa NW 4.7 km/h 8 km/h 61% 0 mm 0 W/m2
21:29 16.3 °C 8.9 °C 1027.3 hPa NW 2.7 km/h 6.4 km/h 61.6% 0 mm 0 W/m2
21:34 16.3 °C 9 °C 1027.3 hPa NW 0.8 km/h 3.2 km/h 62% 0 mm 0 W/m2
21:39 16.2 °C 9 °C 1027.3 hPa NW 2.1 km/h 3.2 km/h 62.4% 0 mm 0 W/m2
21:44 16.1 °C 9.1 °C 1027.7 hPa NW 2.7 km/h 4.8 km/h 63% 0 mm 0 W/m2
21:49 16 °C 9 °C 1027.7 hPa NW 2.3 km/h 4.8 km/h 63% 0 mm 0 W/m2
21:54 15.9 °C 9.1 °C 1027.7 hPa NW 1.9 km/h 4.8 km/h 63.8% 0 mm 0 W/m2
21:59 15.8 °C 9 °C 1027.7 hPa NW 2.4 km/h 4.8 km/h 64% 0 mm 0 W/m2
22:04 15.8 °C 9.2 °C 1027.7 hPa NW 2.6 km/h 4.8 km/h 65% 0 mm 0 W/m2
22:09 15.7 °C 9.1 °C 1027.7 hPa NW 4.8 km/h 8 km/h 65% 0 mm 0 W/m2
22:14 15.6 °C 9.1 °C 1027.7 hPa NW 2.6 km/h 6.4 km/h 65.4% 0 mm 0 W/m2
22:19 15.5 °C 9.2 °C 1028 hPa NW 3.7 km/h 8 km/h 66% 0 mm 0 W/m2
22:24 15.4 °C 9.2 °C 1028 hPa NW 4 km/h 6.4 km/h 66% 0 mm 0 W/m2
22:29 15.3 °C 9.3 °C 1028 hPa NW 3.4 km/h 6.4 km/h 67% 0 mm 0 W/m2
22:34 15.3 °C 9.2 °C 1028 hPa NW 2.7 km/h 6.4 km/h 67% 0 mm 0 W/m2
22:39 15.2 °C 9.1 °C 1028 hPa NW 2.7 km/h 4.8 km/h 67% 0 mm 0 W/m2
22:44 15.2 °C 9.2 °C 1028 hPa NW 2.7 km/h 6.4 km/h 67.8% 0 mm 0 W/m2
22:49 15.1 °C 9.2 °C 1028.3 hPa NW 2.9 km/h 4.8 km/h 68% 0 mm 0 W/m2
22:54 14.8 °C 9.1 °C 1028.3 hPa NW 2.1 km/h 4.8 km/h 68.2% 0 mm 0 W/m2
22:59 14.7 °C 9.1 °C 1028.3 hPa NW 1.8 km/h 4.8 km/h 69% 0 mm 0 W/m2
23:04 14.6 °C 9 °C 1028.3 hPa NW 0.6 km/h 3.2 km/h 69% 0 mm 0 W/m2
23:09 14.5 °C 9.1 °C 1028.3 hPa NW 0.6 km/h 3.2 km/h 70% 0 mm 0 W/m2
23:14 14.4 °C 9 °C 1028.3 hPa NW 0.3 km/h 3.2 km/h 70% 0 mm 0 W/m2
23:19 14.3 °C 9.1 °C 1028.3 hPa NW 0.8 km/h 3.2 km/h 70.8% 0 mm 0 W/m2
23:24 14.3 °C 9.1 °C 1028.3 hPa Calm   1.6 km/h 71% 0 mm 0 W/m2
23:29 14.3 °C 9.1 °C 1028.3 hPa NW 0.6 km/h 4.8 km/h 71% 0 mm 0 W/m2
23:34 14.3 °C 9.1 °C 1028.3 hPa NW 1 km/h 4.8 km/h 71% 0 mm 0 W/m2
23:39 14.3 °C 9 °C 1028.3 hPa NW 1.9 km/h 4.8 km/h 70.6% 0 mm 0 W/m2
23:44 14.3 °C 8.9 °C 1028.3 hPa NW 2.4 km/h 8 km/h 70% 0 mm 0 W/m2
23:49 14.4 °C 8.8 °C 1028.7 hPa NW 1.9 km/h 6.4 km/h 69.2% 0 mm 0 W/m2
23:54 14.4 °C 8.8 °C 1028.7 hPa NNW 3.5 km/h 12.9 km/h 69% 0 mm 0 W/m2
23:59 14.6 °C 8.9 °C 1028.7 hPa NNE 4.5 km/h 12.9 km/h 68.8% 0 mm 0 W/m2
Bath Spa Weather
Compliments of Weather Underground - 2 mb